sensor_id;sensor_type;location;lat;lon;timestamp;P1;durP1;ratioP1;P2;durP2;ratioP2
84386;SDS011;74580;47.078;15.446;2024-03-02T00:02:13;7.15;;;5.65;;
84386;SDS011;74580;47.078;15.446;2024-03-02T00:04:39;8.75;;;6.70;;
84386;SDS011;74580;47.078;15.446;2024-03-02T00:07:04;8.30;;;6.10;;
84386;SDS011;74580;47.078;15.446;2024-03-02T00:09:31;9.25;;;6.68;;
84386;SDS011;74580;47.078;15.446;2024-03-02T00:12:00;7.38;;;5.53;;
84386;SDS011;74580;47.078;15.446;2024-03-02T00:14:25;7.40;;;5.70;;
84386;SDS011;74580;47.078;15.446;2024-03-02T00:16:54;7.57;;;5.43;;
84386;SDS011;74580;47.078;15.446;2024-03-02T00:19:21;7.70;;;5.93;;
84386;SDS011;74580;47.078;15.446;2024-03-02T00:21:46;7.18;;;6.25;;
84386;SDS011;74580;47.078;15.446;2024-03-02T00:24:17;7.40;;;5.68;;
84386;SDS011;74580;47.078;15.446;2024-03-02T00:26:46;8.70;;;5.72;;
84386;SDS011;74580;47.078;15.446;2024-03-02T00:29:12;8.80;;;6.00;;
84386;SDS011;74580;47.078;15.446;2024-03-02T00:31:41;7.90;;;6.28;;
84386;SDS011;74580;47.078;15.446;2024-03-02T00:34:07;7.82;;;5.90;;
84386;SDS011;74580;47.078;15.446;2024-03-02T00:36:32;7.65;;;5.75;;
84386;SDS011;74580;47.078;15.446;2024-03-02T00:38:58;8.07;;;6.00;;
84386;SDS011;74580;47.078;15.446;2024-03-02T00:41:27;7.38;;;5.50;;
84386;SDS011;74580;47.078;15.446;2024-03-02T00:43:59;7.38;;;5.53;;
84386;SDS011;74580;47.078;15.446;2024-03-02T00:46:27;7.97;;;6.25;;
84386;SDS011;74580;47.078;15.446;2024-03-02T00:48:58;8.35;;;6.85;;
84386;SDS011;74580;47.078;15.446;2024-03-02T00:51:26;8.77;;;6.63;;
84386;SDS011;74580;47.078;15.446;2024-03-02T00:53:53;7.88;;;6.10;;
84386;SDS011;74580;47.078;15.446;2024-03-02T00:56:21;7.53;;;5.70;;
84386;SDS011;74580;47.078;15.446;2024-03-02T00:58:47;8.77;;;6.65;;
84386;SDS011;74580;47.078;15.446;2024-03-02T01:01:13;7.97;;;6.90;;
84386;SDS011;74580;47.078;15.446;2024-03-02T01:03:39;7.63;;;6.22;;
84386;SDS011;74580;47.078;15.446;2024-03-02T01:06:06;9.43;;;6.68;;
84386;SDS011;74580;47.078;15.446;2024-03-02T01:08:32;8.02;;;6.28;;
84386;SDS011;74580;47.078;15.446;2024-03-02T01:10:58;8.80;;;6.63;;
84386;SDS011;74580;47.078;15.446;2024-03-02T01:13:24;6.75;;;5.47;;
84386;SDS011;74580;47.078;15.446;2024-03-02T01:15:49;7.65;;;6.15;;
84386;SDS011;74580;47.078;15.446;2024-03-02T01:18:15;9.02;;;6.68;;
84386;SDS011;74580;47.078;15.446;2024-03-02T01:20:40;8.88;;;6.40;;
84386;SDS011;74580;47.078;15.446;2024-03-02T01:23:06;7.03;;;5.80;;
84386;SDS011;74580;47.078;15.446;2024-03-02T01:25:31;7.15;;;5.60;;
84386;SDS011;74580;47.078;15.446;2024-03-02T01:27:57;8.40;;;5.45;;
84386;SDS011;74580;47.078;15.446;2024-03-02T01:30:22;9.25;;;6.53;;
84386;SDS011;74580;47.078;15.446;2024-03-02T01:32:48;8.48;;;6.75;;
84386;SDS011;74580;47.078;15.446;2024-03-02T01:35:13;8.55;;;6.32;;
84386;SDS011;74580;47.078;15.446;2024-03-02T01:37:39;8.25;;;6.05;;
84386;SDS011;74580;47.078;15.446;2024-03-02T01:40:05;7.43;;;6.38;;
84386;SDS011;74580;47.078;15.446;2024-03-02T01:42:34;8.80;;;5.82;;
84386;SDS011;74580;47.078;15.446;2024-03-02T01:45:01;8.10;;;6.18;;
84386;SDS011;74580;47.078;15.446;2024-03-02T01:47:27;8.65;;;6.22;;
84386;SDS011;74580;47.078;15.446;2024-03-02T01:49:52;7.63;;;5.97;;
84386;SDS011;74580;47.078;15.446;2024-03-02T01:52:18;9.63;;;6.57;;
84386;SDS011;74580;47.078;15.446;2024-03-02T01:54:43;8.75;;;6.15;;
84386;SDS011;74580;47.078;15.446;2024-03-02T01:57:09;7.57;;;6.38;;
84386;SDS011;74580;47.078;15.446;2024-03-02T01:59:34;8.02;;;6.30;;
84386;SDS011;74580;47.078;15.446;2024-03-02T02:02:00;7.45;;;6.25;;
84386;SDS011;74580;47.078;15.446;2024-03-02T02:04:26;9.07;;;6.68;;
84386;SDS011;74580;47.078;15.446;2024-03-02T02:06:53;7.18;;;6.00;;
84386;SDS011;74580;47.078;15.446;2024-03-02T02:09:18;8.57;;;6.68;;
84386;SDS011;74580;47.078;15.446;2024-03-02T02:11:44;6.97;;;5.60;;
84386;SDS011;74580;47.078;15.446;2024-03-02T02:14:10;8.07;;;5.75;;
84386;SDS011;74580;47.078;15.446;2024-03-02T02:16:36;8.07;;;5.78;;
84386;SDS011;74580;47.078;15.446;2024-03-02T02:19:01;6.85;;;5.30;;
84386;SDS011;74580;47.078;15.446;2024-03-02T02:21:27;7.78;;;5.82;;
84386;SDS011;74580;47.078;15.446;2024-03-02T02:23:52;8.90;;;6.35;;
84386;SDS011;74580;47.078;15.446;2024-03-02T02:26:18;8.68;;;6.70;;
84386;SDS011;74580;47.078;15.446;2024-03-02T02:28:43;8.30;;;5.82;;
84386;SDS011;74580;47.078;15.446;2024-03-02T02:31:12;7.85;;;6.53;;
84386;SDS011;74580;47.078;15.446;2024-03-02T02:33:41;7.55;;;6.40;;
84386;SDS011;74580;47.078;15.446;2024-03-02T02:36:07;8.40;;;6.75;;
84386;SDS011;74580;47.078;15.446;2024-03-02T02:38:33;8.13;;;5.70;;
84386;SDS011;74580;47.078;15.446;2024-03-02T02:41:03;8.68;;;6.40;;
84386;SDS011;74580;47.078;15.446;2024-03-02T02:43:28;8.00;;;6.20;;
84386;SDS011;74580;47.078;15.446;2024-03-02T02:45:54;7.75;;;6.40;;
84386;SDS011;74580;47.078;15.446;2024-03-02T02:48:19;7.38;;;5.32;;
84386;SDS011;74580;47.078;15.446;2024-03-02T02:50:44;8.32;;;6.22;;
84386;SDS011;74580;47.078;15.446;2024-03-02T02:53:10;8.20;;;6.25;;
84386;SDS011;74580;47.078;15.446;2024-03-02T02:55:35;8.93;;;6.47;;
84386;SDS011;74580;47.078;15.446;2024-03-02T02:58:05;7.88;;;5.68;;
84386;SDS011;74580;47.078;15.446;2024-03-02T03:00:31;7.97;;;6.63;;
84386;SDS011;74580;47.078;15.446;2024-03-02T03:02:56;9.20;;;6.68;;
84386;SDS011;74580;47.078;15.446;2024-03-02T03:05:21;7.38;;;5.70;;
84386;SDS011;74580;47.078;15.446;2024-03-02T03:07:47;7.50;;;5.55;;
84386;SDS011;74580;47.078;15.446;2024-03-02T03:10:15;8.95;;;5.65;;
84386;SDS011;74580;47.078;15.446;2024-03-02T03:12:40;7.03;;;5.32;;
84386;SDS011;74580;47.078;15.446;2024-03-02T03:15:07;8.23;;;6.00;;
84386;SDS011;74580;47.078;15.446;2024-03-02T03:17:34;7.75;;;5.95;;
84386;SDS011;74580;47.078;15.446;2024-03-02T03:20:00;7.05;;;5.70;;
84386;SDS011;74580;47.078;15.446;2024-03-02T03:22:26;8.13;;;6.20;;
84386;SDS011;74580;47.078;15.446;2024-03-02T03:24:52;8.23;;;6.65;;
84386;SDS011;74580;47.078;15.446;2024-03-02T03:27:18;8.15;;;6.03;;
84386;SDS011;74580;47.078;15.446;2024-03-02T03:29:44;7.30;;;5.95;;
84386;SDS011;74580;47.078;15.446;2024-03-02T03:32:10;5.90;;;5.15;;
84386;SDS011;74580;47.078;15.446;2024-03-02T03:34:35;7.20;;;5.80;;
84386;SDS011;74580;47.078;15.446;2024-03-02T03:37:01;7.57;;;5.40;;
84386;SDS011;74580;47.078;15.446;2024-03-02T03:39:27;8.13;;;6.10;;
84386;SDS011;74580;47.078;15.446;2024-03-02T03:41:53;8.23;;;6.15;;
84386;SDS011;74580;47.078;15.446;2024-03-02T03:44:19;7.05;;;5.53;;
84386;SDS011;74580;47.078;15.446;2024-03-02T03:46:44;7.57;;;5.60;;
84386;SDS011;74580;47.078;15.446;2024-03-02T03:49:10;7.45;;;5.28;;
84386;SDS011;74580;47.078;15.446;2024-03-02T03:51:36;8.15;;;5.97;;
84386;SDS011;74580;47.078;15.446;2024-03-02T03:54:01;8.10;;;5.63;;
84386;SDS011;74580;47.078;15.446;2024-03-02T03:56:27;8.27;;;6.18;;
84386;SDS011;74580;47.078;15.446;2024-03-02T03:58:52;8.15;;;5.75;;
84386;SDS011;74580;47.078;15.446;2024-03-02T04:01:18;7.00;;;5.80;;
84386;SDS011;74580;47.078;15.446;2024-03-02T04:03:43;7.85;;;6.00;;
84386;SDS011;74580;47.078;15.446;2024-03-02T04:06:09;8.38;;;6.28;;
84386;SDS011;74580;47.078;15.446;2024-03-02T04:08:34;8.38;;;5.95;;
84386;SDS011;74580;47.078;15.446;2024-03-02T04:10:59;8.50;;;6.38;;
84386;SDS011;74580;47.078;15.446;2024-03-02T04:13:25;7.53;;;5.25;;
84386;SDS011;74580;47.078;15.446;2024-03-02T04:15:50;7.60;;;5.70;;
84386;SDS011;74580;47.078;15.446;2024-03-02T04:18:15;7.60;;;5.18;;
84386;SDS011;74580;47.078;15.446;2024-03-02T04:20:41;7.57;;;6.10;;
84386;SDS011;74580;47.078;15.446;2024-03-02T04:23:06;7.13;;;6.00;;
84386;SDS011;74580;47.078;15.446;2024-03-02T04:25:32;6.93;;;5.70;;
84386;SDS011;74580;47.078;15.446;2024-03-02T04:27:58;7.50;;;5.93;;
84386;SDS011;74580;47.078;15.446;2024-03-02T04:30:23;6.80;;;5.72;;
84386;SDS011;74580;47.078;15.446;2024-03-02T04:32:50;7.50;;;5.70;;
84386;SDS011;74580;47.078;15.446;2024-03-02T04:35:15;7.00;;;5.57;;
84386;SDS011;74580;47.078;15.446;2024-03-02T04:37:40;8.48;;;6.10;;
84386;SDS011;74580;47.078;15.446;2024-03-02T04:40:06;7.50;;;5.95;;
84386;SDS011;74580;47.078;15.446;2024-03-02T04:42:35;7.68;;;5.50;;
84386;SDS011;74580;47.078;15.446;2024-03-02T04:45:01;7.32;;;5.63;;
84386;SDS011;74580;47.078;15.446;2024-03-02T04:47:26;7.57;;;5.57;;
84386;SDS011;74580;47.078;15.446;2024-03-02T04:49:52;7.60;;;5.95;;
84386;SDS011;74580;47.078;15.446;2024-03-02T04:52:17;7.63;;;5.90;;
84386;SDS011;74580;47.078;15.446;2024-03-02T04:54:43;6.95;;;5.20;;
84386;SDS011;74580;47.078;15.446;2024-03-02T04:57:27;6.55;;;5.03;;
84386;SDS011;74580;47.078;15.446;2024-03-02T04:59:52;6.95;;;5.15;;
84386;SDS011;74580;47.078;15.446;2024-03-02T05:02:17;8.00;;;5.10;;
84386;SDS011;74580;47.078;15.446;2024-03-02T05:04:43;8.38;;;6.00;;
84386;SDS011;74580;47.078;15.446;2024-03-02T05:07:10;7.03;;;5.90;;
84386;SDS011;74580;47.078;15.446;2024-03-02T05:09:36;7.05;;;5.97;;
84386;SDS011;74580;47.078;15.446;2024-03-02T05:12:02;6.80;;;5.32;;
84386;SDS011;74580;47.078;15.446;2024-03-02T05:14:46;6.78;;;5.13;;
84386;SDS011;74580;47.078;15.446;2024-03-02T05:17:11;7.32;;;5.72;;
84386;SDS011;74580;47.078;15.446;2024-03-02T05:19:36;6.95;;;5.22;;
84386;SDS011;74580;47.078;15.446;2024-03-02T05:22:02;7.05;;;5.78;;
84386;SDS011;74580;47.078;15.446;2024-03-02T05:24:28;6.47;;;5.20;;
84386;SDS011;74580;47.078;15.446;2024-03-02T05:26:53;6.88;;;5.40;;
84386;SDS011;74580;47.078;15.446;2024-03-02T05:29:19;6.43;;;5.13;;
84386;SDS011;74580;47.078;15.446;2024-03-02T05:31:44;7.60;;;5.53;;
84386;SDS011;74580;47.078;15.446;2024-03-02T05:34:10;6.90;;;5.72;;
84386;SDS011;74580;47.078;15.446;2024-03-02T05:36:35;7.93;;;5.75;;
84386;SDS011;74580;47.078;15.446;2024-03-02T05:39:01;6.43;;;5.20;;
84386;SDS011;74580;47.078;15.446;2024-03-02T05:41:29;6.97;;;4.90;;
84386;SDS011;74580;47.078;15.446;2024-03-02T05:43:55;7.37;;;5.87;;
84386;SDS011;74580;47.078;15.446;2024-03-02T05:46:20;7.03;;;5.72;;
84386;SDS011;74580;47.078;15.446;2024-03-02T05:48:45;6.82;;;5.40;;
84386;SDS011;74580;47.078;15.446;2024-03-02T05:51:11;6.88;;;5.10;;
84386;SDS011;74580;47.078;15.446;2024-03-02T05:53:36;6.40;;;5.38;;
84386;SDS011;74580;47.078;15.446;2024-03-02T05:56:03;7.32;;;5.03;;
84386;SDS011;74580;47.078;15.446;2024-03-02T05:58:29;6.75;;;5.55;;
84386;SDS011;74580;47.078;15.446;2024-03-02T06:01:13;7.97;;;5.65;;
84386;SDS011;74580;47.078;15.446;2024-03-02T06:03:38;7.25;;;5.28;;
84386;SDS011;74580;47.078;15.446;2024-03-02T06:06:04;6.60;;;5.25;;
84386;SDS011;74580;47.078;15.446;2024-03-02T06:08:29;6.32;;;4.80;;
84386;SDS011;74580;47.078;15.446;2024-03-02T06:10:54;6.88;;;4.53;;
84386;SDS011;74580;47.078;15.446;2024-03-02T06:13:21;7.43;;;5.78;;
84386;SDS011;74580;47.078;15.446;2024-03-02T06:15:46;7.53;;;5.43;;
84386;SDS011;74580;47.078;15.446;2024-03-02T06:18:12;7.13;;;5.32;;
84386;SDS011;74580;47.078;15.446;2024-03-02T06:20:37;6.25;;;4.60;;
84386;SDS011;74580;47.078;15.446;2024-03-02T06:23:03;7.13;;;5.57;;
84386;SDS011;74580;47.078;15.446;2024-03-02T06:25:29;7.40;;;5.00;;
84386;SDS011;74580;47.078;15.446;2024-03-02T06:27:54;6.20;;;5.20;;
84386;SDS011;74580;47.078;15.446;2024-03-02T06:30:20;7.20;;;5.22;;
84386;SDS011;74580;47.078;15.446;2024-03-02T06:32:45;6.78;;;4.85;;
84386;SDS011;74580;47.078;15.446;2024-03-02T06:35:10;6.77;;;5.00;;
84386;SDS011;74580;47.078;15.446;2024-03-02T06:37:38;6.07;;;4.53;;
84386;SDS011;74580;47.078;15.446;2024-03-02T06:40:05;6.18;;;5.20;;
84386;SDS011;74580;47.078;15.446;2024-03-02T06:42:33;7.18;;;5.45;;
84386;SDS011;74580;47.078;15.446;2024-03-02T06:44:58;6.22;;;5.05;;
84386;SDS011;74580;47.078;15.446;2024-03-02T06:47:24;6.13;;;4.57;;
84386;SDS011;74580;47.078;15.446;2024-03-02T06:49:49;7.65;;;5.95;;
84386;SDS011;74580;47.078;15.446;2024-03-02T06:52:15;6.78;;;4.93;;
84386;SDS011;74580;47.078;15.446;2024-03-02T06:54:41;6.20;;;5.00;;
84386;SDS011;74580;47.078;15.446;2024-03-02T06:57:06;7.50;;;5.22;;
84386;SDS011;74580;47.078;15.446;2024-03-02T06:59:32;6.50;;;5.07;;
84386;SDS011;74580;47.078;15.446;2024-03-02T07:01:58;6.05;;;4.45;;
84386;SDS011;74580;47.078;15.446;2024-03-02T07:04:24;7.22;;;5.00;;
84386;SDS011;74580;47.078;15.446;2024-03-02T07:06:49;6.72;;;5.13;;
84386;SDS011;74580;47.078;15.446;2024-03-02T07:09:16;6.40;;;4.78;;
84386;SDS011;74580;47.078;15.446;2024-03-02T07:11:41;6.40;;;4.38;;
84386;SDS011;74580;47.078;15.446;2024-03-02T07:14:06;6.40;;;4.97;;
84386;SDS011;74580;47.078;15.446;2024-03-02T07:16:32;5.60;;;4.97;;
84386;SDS011;74580;47.078;15.446;2024-03-02T07:18:59;7.07;;;5.25;;
84386;SDS011;74580;47.078;15.446;2024-03-02T07:21:26;7.15;;;5.47;;
84386;SDS011;74580;47.078;15.446;2024-03-02T07:23:52;6.95;;;5.05;;
84386;SDS011;74580;47.078;15.446;2024-03-02T07:26:17;7.32;;;5.00;;
84386;SDS011;74580;47.078;15.446;2024-03-02T07:28:44;5.30;;;4.65;;
84386;SDS011;74580;47.078;15.446;2024-03-02T07:31:13;6.60;;;4.97;;
84386;SDS011;74580;47.078;15.446;2024-03-02T07:33:38;7.03;;;5.05;;
84386;SDS011;74580;47.078;15.446;2024-03-02T07:36:04;6.13;;;4.95;;
84386;SDS011;74580;47.078;15.446;2024-03-02T07:38:30;6.72;;;4.70;;
84386;SDS011;74580;47.078;15.446;2024-03-02T07:40:56;8.15;;;5.70;;
84386;SDS011;74580;47.078;15.446;2024-03-02T07:43:22;6.22;;;4.30;;
84386;SDS011;74580;47.078;15.446;2024-03-02T07:45:48;6.25;;;4.85;;
84386;SDS011;74580;47.078;15.446;2024-03-02T07:48:14;6.70;;;5.40;;
84386;SDS011;74580;47.078;15.446;2024-03-02T07:50:40;5.65;;;4.32;;
84386;SDS011;74580;47.078;15.446;2024-03-02T07:53:05;6.15;;;4.60;;
84386;SDS011;74580;47.078;15.446;2024-03-02T07:55:32;5.78;;;4.50;;
84386;SDS011;74580;47.078;15.446;2024-03-02T07:57:58;6.45;;;5.20;;
84386;SDS011;74580;47.078;15.446;2024-03-02T08:00:23;6.22;;;4.60;;
84386;SDS011;74580;47.078;15.446;2024-03-02T08:02:50;7.43;;;4.90;;
84386;SDS011;74580;47.078;15.446;2024-03-02T08:05:17;6.50;;;4.93;;
84386;SDS011;74580;47.078;15.446;2024-03-02T08:07:44;6.53;;;4.88;;
84386;SDS011;74580;47.078;15.446;2024-03-02T08:10:10;7.63;;;5.00;;
84386;SDS011;74580;47.078;15.446;2024-03-02T08:12:36;6.03;;;4.15;;
84386;SDS011;74580;47.078;15.446;2024-03-02T08:15:01;6.18;;;4.60;;
84386;SDS011;74580;47.078;15.446;2024-03-02T08:17:27;5.82;;;5.13;;
84386;SDS011;74580;47.078;15.446;2024-03-02T08:19:52;6.18;;;4.50;;
84386;SDS011;74580;47.078;15.446;2024-03-02T08:22:18;6.55;;;4.25;;
84386;SDS011;74580;47.078;15.446;2024-03-02T08:24:44;6.63;;;5.00;;
84386;SDS011;74580;47.078;15.446;2024-03-02T08:27:10;5.90;;;4.35;;
84386;SDS011;74580;47.078;15.446;2024-03-02T08:29:35;7.22;;;4.78;;
84386;SDS011;74580;47.078;15.446;2024-03-02T08:32:00;5.90;;;4.37;;
84386;SDS011;74580;47.078;15.446;2024-03-02T08:34:26;6.90;;;4.97;;
84386;SDS011;74580;47.078;15.446;2024-03-02T08:36:51;6.07;;;4.70;;
84386;SDS011;74580;47.078;15.446;2024-03-02T08:39:17;5.88;;;4.50;;
84386;SDS011;74580;47.078;15.446;2024-03-02T08:41:44;6.30;;;5.13;;
84386;SDS011;74580;47.078;15.446;2024-03-02T08:44:11;5.55;;;4.13;;
84386;SDS011;74580;47.078;15.446;2024-03-02T08:46:37;5.93;;;4.80;;
84386;SDS011;74580;47.078;15.446;2024-03-02T08:49:03;5.95;;;4.50;;
84386;SDS011;74580;47.078;15.446;2024-03-02T08:51:29;5.20;;;4.10;;
84386;SDS011;74580;47.078;15.446;2024-03-02T08:53:54;6.43;;;4.85;;
84386;SDS011;74580;47.078;15.446;2024-03-02T08:56:19;5.95;;;4.63;;
84386;SDS011;74580;47.078;15.446;2024-03-02T08:58:46;6.13;;;4.57;;
84386;SDS011;74580;47.078;15.446;2024-03-02T09:01:12;6.05;;;4.55;;
84386;SDS011;74580;47.078;15.446;2024-03-02T09:03:37;6.15;;;4.38;;
84386;SDS011;74580;47.078;15.446;2024-03-02T09:06:03;5.68;;;4.28;;
84386;SDS011;74580;47.078;15.446;2024-03-02T09:08:28;5.50;;;4.13;;
84386;SDS011;74580;47.078;15.446;2024-03-02T09:10:54;6.05;;;4.40;;
84386;SDS011;74580;47.078;15.446;2024-03-02T09:13:20;6.13;;;4.05;;
84386;SDS011;74580;47.078;15.446;2024-03-02T09:15:47;7.20;;;5.15;;
84386;SDS011;74580;47.078;15.446;2024-03-02T09:18:12;6.97;;;4.63;;
84386;SDS011;74580;47.078;15.446;2024-03-02T09:20:38;5.93;;;4.80;;
84386;SDS011;74580;47.078;15.446;2024-03-02T09:23:03;6.57;;;4.53;;
84386;SDS011;74580;47.078;15.446;2024-03-02T09:25:29;5.78;;;4.38;;
84386;SDS011;74580;47.078;15.446;2024-03-02T09:27:54;7.05;;;4.93;;
84386;SDS011;74580;47.078;15.446;2024-03-02T09:30:19;6.23;;;4.60;;
84386;SDS011;74580;47.078;15.446;2024-03-02T09:32:45;5.55;;;4.47;;
84386;SDS011;74580;47.078;15.446;2024-03-02T09:35:10;5.72;;;4.03;;
84386;SDS011;74580;47.078;15.446;2024-03-02T09:37:37;6.80;;;4.68;;
84386;SDS011;74580;47.078;15.446;2024-03-02T09:40:02;6.10;;;4.45;;
84386;SDS011;74580;47.078;15.446;2024-03-02T09:42:28;5.45;;;4.30;;
84386;SDS011;74580;47.078;15.446;2024-03-02T09:44:54;6.00;;;4.65;;
84386;SDS011;74580;47.078;15.446;2024-03-02T09:47:20;6.65;;;4.70;;
84386;SDS011;74580;47.078;15.446;2024-03-02T09:49:46;5.60;;;4.30;;
84386;SDS011;74580;47.078;15.446;2024-03-02T09:52:11;6.68;;;4.55;;
84386;SDS011;74580;47.078;15.446;2024-03-02T09:54:38;6.22;;;4.78;;
84386;SDS011;74580;47.078;15.446;2024-03-02T09:57:04;6.15;;;4.93;;
84386;SDS011;74580;47.078;15.446;2024-03-02T09:59:29;5.68;;;4.57;;
84386;SDS011;74580;47.078;15.446;2024-03-02T10:01:55;5.65;;;4.28;;
84386;SDS011;74580;47.078;15.446;2024-03-02T10:04:23;5.30;;;4.50;;
84386;SDS011;74580;47.078;15.446;2024-03-02T10:07:10;5.57;;;4.00;;
84386;SDS011;74580;47.078;15.446;2024-03-02T10:09:38;6.78;;;4.35;;
84386;SDS011;74580;47.078;15.446;2024-03-02T10:12:05;5.63;;;4.70;;
84386;SDS011;74580;47.078;15.446;2024-03-02T10:14:32;5.80;;;4.60;;
84386;SDS011;74580;47.078;15.446;2024-03-02T10:17:10;6.55;;;4.00;;
84386;SDS011;74580;47.078;15.446;2024-03-02T10:19:37;5.32;;;3.95;;
84386;SDS011;74580;47.078;15.446;2024-03-02T10:22:07;5.97;;;4.40;;
84386;SDS011;74580;47.078;15.446;2024-03-02T10:24:43;5.20;;;4.05;;
84386;SDS011;74580;47.078;15.446;2024-03-02T10:27:10;6.05;;;4.88;;
84386;SDS011;74580;47.078;15.446;2024-03-02T10:29:41;5.50;;;4.78;;
84386;SDS011;74580;47.078;15.446;2024-03-02T10:32:09;5.15;;;4.18;;
84386;SDS011;74580;47.078;15.446;2024-03-02T10:34:36;5.30;;;3.53;;
84386;SDS011;74580;47.078;15.446;2024-03-02T10:37:03;6.65;;;5.07;;
84386;SDS011;74580;47.078;15.446;2024-03-02T10:39:28;5.47;;;3.97;;
84386;SDS011;74580;47.078;15.446;2024-03-02T10:41:55;6.25;;;4.40;;
84386;SDS011;74580;47.078;15.446;2024-03-02T10:44:22;6.60;;;4.60;;
84386;SDS011;74580;47.078;15.446;2024-03-02T10:46:48;5.88;;;3.85;;
84386;SDS011;74580;47.078;15.446;2024-03-02T10:49:15;5.40;;;4.30;;
84386;SDS011;74580;47.078;15.446;2024-03-02T10:51:42;7.15;;;4.78;;
84386;SDS011;74580;47.078;15.446;2024-03-02T10:54:07;5.78;;;4.55;;
84386;SDS011;74580;47.078;15.446;2024-03-02T10:56:34;5.40;;;4.20;;
84386;SDS011;74580;47.078;15.446;2024-03-02T11:01:35;5.40;;;4.22;;
84386;SDS011;74580;47.078;15.446;2024-03-02T11:04:04;5.32;;;4.22;;
84386;SDS011;74580;47.078;15.446;2024-03-02T11:06:33;6.85;;;4.97;;
84386;SDS011;74580;47.078;15.446;2024-03-02T11:09:03;5.40;;;4.32;;
84386;SDS011;74580;47.078;15.446;2024-03-02T11:11:33;5.45;;;4.30;;
84386;SDS011;74580;47.078;15.446;2024-03-02T11:14:02;6.18;;;4.93;;
84386;SDS011;74580;47.078;15.446;2024-03-02T11:19:05;5.72;;;4.43;;
84386;SDS011;74580;47.078;15.446;2024-03-02T11:21:34;6.28;;;4.10;;
84386;SDS011;74580;47.078;15.446;2024-03-02T11:24:00;5.05;;;4.30;;
84386;SDS011;74580;47.078;15.446;2024-03-02T11:26:45;5.80;;;4.22;;
84386;SDS011;74580;47.078;15.446;2024-03-02T11:29:29;5.78;;;4.00;;
84386;SDS011;74580;47.078;15.446;2024-03-02T11:32:26;6.53;;;3.53;;
84386;SDS011;74580;47.078;15.446;2024-03-02T11:34:50;5.57;;;4.35;;
84386;SDS011;74580;47.078;15.446;2024-03-02T11:37:17;5.60;;;3.75;;
84386;SDS011;74580;47.078;15.446;2024-03-02T11:39:44;4.30;;;3.35;;
84386;SDS011;74580;47.078;15.446;2024-03-02T11:42:10;5.70;;;4.20;;
84386;SDS011;74580;47.078;15.446;2024-03-02T11:44:38;5.93;;;4.30;;
84386;SDS011;74580;47.078;15.446;2024-03-02T11:47:06;5.75;;;4.00;;
84386;SDS011;74580;47.078;15.446;2024-03-02T11:49:39;6.25;;;3.65;;
84386;SDS011;74580;47.078;15.446;2024-03-02T11:52:06;5.13;;;4.03;;
84386;SDS011;74580;47.078;15.446;2024-03-02T11:54:34;5.97;;;4.20;;
84386;SDS011;74580;47.078;15.446;2024-03-02T11:57:01;5.43;;;4.07;;
84386;SDS011;74580;47.078;15.446;2024-03-02T11:59:28;5.25;;;3.80;;
84386;SDS011;74580;47.078;15.446;2024-03-02T12:01:55;4.95;;;3.78;;
84386;SDS011;74580;47.078;15.446;2024-03-02T12:04:22;5.82;;;4.22;;
84386;SDS011;74580;47.078;15.446;2024-03-02T12:06:48;4.90;;;3.90;;
84386;SDS011;74580;47.078;15.446;2024-03-02T12:09:20;5.70;;;4.35;;
84386;SDS011;74580;47.078;15.446;2024-03-02T12:11:46;5.20;;;3.65;;
84386;SDS011;74580;47.078;15.446;2024-03-02T12:14:12;4.63;;;3.60;;
84386;SDS011;74580;47.078;15.446;2024-03-02T12:16:38;5.28;;;4.13;;
84386;SDS011;74580;47.078;15.446;2024-03-02T12:19:05;5.13;;;4.00;;
84386;SDS011;74580;47.078;15.446;2024-03-02T12:21:31;4.85;;;3.83;;
84386;SDS011;74580;47.078;15.446;2024-03-02T12:23:56;6.53;;;4.22;;
84386;SDS011;74580;47.078;15.446;2024-03-02T12:26:22;5.13;;;4.10;;
84386;SDS011;74580;47.078;15.446;2024-03-02T12:28:47;5.25;;;3.58;;
84386;SDS011;74580;47.078;15.446;2024-03-02T12:31:13;5.55;;;4.38;;
84386;SDS011;74580;47.078;15.446;2024-03-02T12:33:39;4.78;;;3.47;;
84386;SDS011;74580;47.078;15.446;2024-03-02T12:36:09;4.65;;;3.75;;
84386;SDS011;74580;47.078;15.446;2024-03-02T12:38:37;5.70;;;3.90;;
84386;SDS011;74580;47.078;15.446;2024-03-02T12:41:02;4.70;;;3.40;;
84386;SDS011;74580;47.078;15.446;2024-03-02T12:43:31;7.30;;;3.45;;
84386;SDS011;74580;47.078;15.446;2024-03-02T12:45:56;6.25;;;4.03;;
84386;SDS011;74580;47.078;15.446;2024-03-02T12:48:22;5.38;;;3.85;;
84386;SDS011;74580;47.078;15.446;2024-03-02T12:50:48;4.72;;;3.25;;
84386;SDS011;74580;47.078;15.446;2024-03-02T12:53:14;4.53;;;3.30;;
84386;SDS011;74580;47.078;15.446;2024-03-02T12:55:40;5.63;;;3.55;;
84386;SDS011;74580;47.078;15.446;2024-03-02T12:58:06;5.07;;;3.92;;
84386;SDS011;74580;47.078;15.446;2024-03-02T13:00:32;4.63;;;3.53;;
84386;SDS011;74580;47.078;15.446;2024-03-02T13:03:00;4.47;;;3.30;;
84386;SDS011;74580;47.078;15.446;2024-03-02T13:05:31;5.00;;;3.40;;
84386;SDS011;74580;47.078;15.446;2024-03-02T13:07:57;5.28;;;3.90;;
84386;SDS011;74580;47.078;15.446;2024-03-02T13:10:24;5.30;;;3.83;;
84386;SDS011;74580;47.078;15.446;2024-03-02T13:12:50;5.35;;;3.97;;
84386;SDS011;74580;47.078;15.446;2024-03-02T13:15:18;5.65;;;3.60;;
84386;SDS011;74580;47.078;15.446;2024-03-02T13:17:44;4.88;;;4.00;;
84386;SDS011;74580;47.078;15.446;2024-03-02T13:20:10;5.00;;;3.50;;
84386;SDS011;74580;47.078;15.446;2024-03-02T13:22:36;4.30;;;3.30;;
84386;SDS011;74580;47.078;15.446;2024-03-02T13:25:01;4.90;;;3.85;;
84386;SDS011;74580;47.078;15.446;2024-03-02T13:27:30;4.90;;;3.50;;
84386;SDS011;74580;47.078;15.446;2024-03-02T13:29:57;4.95;;;3.50;;
84386;SDS011;74580;47.078;15.446;2024-03-02T13:32:22;4.68;;;3.55;;
84386;SDS011;74580;47.078;15.446;2024-03-02T13:34:49;4.45;;;3.60;;
84386;SDS011;74580;47.078;15.446;2024-03-02T13:37:15;4.18;;;3.50;;
84386;SDS011;74580;47.078;15.446;2024-03-02T13:39:40;4.20;;;3.45;;
84386;SDS011;74580;47.078;15.446;2024-03-02T13:42:10;5.57;;;3.45;;
84386;SDS011;74580;47.078;15.446;2024-03-02T13:44:38;4.50;;;3.53;;
84386;SDS011;74580;47.078;15.446;2024-03-02T13:47:04;4.63;;;3.42;;
84386;SDS011;74580;47.078;15.446;2024-03-02T13:49:30;6.25;;;3.45;;
84386;SDS011;74580;47.078;15.446;2024-03-02T13:52:00;5.55;;;3.63;;
84386;SDS011;74580;47.078;15.446;2024-03-02T13:54:28;4.80;;;3.10;;
84386;SDS011;74580;47.078;15.446;2024-03-02T13:56:54;4.60;;;3.20;;
84386;SDS011;74580;47.078;15.446;2024-03-02T13:59:19;4.32;;;3.40;;
84386;SDS011;74580;47.078;15.446;2024-03-02T14:01:45;4.70;;;3.55;;
84386;SDS011;74580;47.078;15.446;2024-03-02T14:04:10;4.22;;;2.85;;
84386;SDS011;74580;47.078;15.446;2024-03-02T14:06:36;4.47;;;3.55;;
84386;SDS011;74580;47.078;15.446;2024-03-02T14:09:01;4.72;;;3.28;;
84386;SDS011;74580;47.078;15.446;2024-03-02T14:11:26;5.15;;;3.70;;
84386;SDS011;74580;47.078;15.446;2024-03-02T14:13:52;4.75;;;3.60;;
84386;SDS011;74580;47.078;15.446;2024-03-02T14:16:19;4.20;;;3.38;;
84386;SDS011;74580;47.078;15.446;2024-03-02T14:18:45;4.68;;;3.45;;
84386;SDS011;74580;47.078;15.446;2024-03-02T14:21:10;4.35;;;3.40;;
84386;SDS011;74580;47.078;15.446;2024-03-02T14:23:36;5.15;;;3.38;;
84386;SDS011;74580;47.078;15.446;2024-03-02T14:26:01;4.28;;;2.83;;
84386;SDS011;74580;47.078;15.446;2024-03-02T14:28:27;4.13;;;3.30;;
84386;SDS011;74580;47.078;15.446;2024-03-02T14:30:53;4.45;;;2.80;;
84386;SDS011;74580;47.078;15.446;2024-03-02T14:33:18;4.88;;;3.55;;
84386;SDS011;74580;47.078;15.446;2024-03-02T14:35:44;4.32;;;3.03;;